This is the latest recevied weather packets stored in our database for station/object WA1DLZ. If no packets are shown the sender has not sent any weather packets the latest 10 day(s).
| Time | Temp. | Humidity | Pressure | Rain* | Wind** | Luminosity | Snow |
|---|---|---|---|---|---|---|---|
| 1777747503 | 5.56° C | 93% | 1012 hPa | 0 mm | - | - | - |
| 1777745403 | 5.56° C | 92% | 1012 hPa | 0.25 mm | - | - | - |
| 1777744803 | 5.56° C | 92% | 1012 hPa | 0.25 mm | - | - | - |
| 1777744504 | 5.56° C | 92% | 1012 hPa | 0.25 mm | - | - | - |
| 1777743903 | 5.56° C | 91% | 1012 hPa | 0.25 mm | - | - | - |
| 1777741203 | 5.56° C | 87% | 1012.1 hPa | 0 mm | - | - | - |
| 1777740904 | 5.56° C | 86% | 1012.2 hPa | 0 mm | - | - | - |
| 1777738804 | 5.56° C | 87% | 1012.6 hPa | 0 mm | - | - | - |
| 1777738204 | 6.11° C | 88% | 1012.7 hPa | 0 mm | - | - | - |
| 1777732204 | 7.22° C | 83% | 1013.5 hPa | 0 mm | - | - | - |
| 1777730703 | 7.22° C | 79% | 1013.3 hPa | 0 mm | - | - | - |
| 1777729204 | 6.67° C | 80% | 1013.4 hPa | 0 mm | - | - | - |
| 1777728304 | 6.67° C | 80% | 1013.6 hPa | 0 mm | - | - | - |
| 1777720204 | 2.22° C | 86% | 1013.4 hPa | 0 mm | - | - | - |
| 1777719004 | 1.67° C | 88% | 1013.1 hPa | 0 mm | - | - | - |
| 1777718704 | 1.67° C | 89% | 1013.1 hPa | 0 mm | - | - | - |
| 1777718404 | 1.67° C | 90% | 1013.1 hPa | 0 mm | - | - | - |
| 1777717804 | 1.67° C | 90% | 1012.9 hPa | 0 mm | - | - | - |
| 1777717503 | 1.67° C | 90% | 1012.7 hPa | 0 mm | - | - | - |
| 1777717204 | 1.67° C | 90% | 1012.6 hPa | 0 mm | - | - | - |
| 1777714504 | 1.11° C | 89% | 1011.9 hPa | 0 mm | - | - | - |
| 1777713904 | 1.11° C | 90% | 1011.9 hPa | 0 mm | - | - | - |
| 1777711204 | 0° C | 94% | 1012.4 hPa | 0 mm | - | - | - |
| 1777710905 | 0° C | 94% | 1012.3 hPa | 0 mm | - | - | - |
| 1777708204 | -1.11° C | 93% | 1012 hPa | 0 mm | - | - | - |
* Rain latest hour (hover to see other rain measurements)
** Current wind speed in m/s (hover to see current wind gust speed)